메인 페이지
METAR-TAF:

METAR-TAF

공항 :

주노, 알래스카, 미국

위도: 58-21-17N, 경도: 134-34-34W, 고도: 6m

현재 날씨관측

예보는 31분 전, 06:53시(UTC)에 발표되었습니다.
10kt
온도 6°C
습도 70%
기압 1013 hPa
시정: 16.1km
고도 4500ft 상공 구름 조금
고도 7500ft 상공 구름 많음
고도 13000ft 상공 흐림

METAR: PAJN 210653Z 10010KT 10SM FEW045 BKN075 OVC130 06/01 A2992 RMK AO2 SLP132 T00560011

시각: 23:24 (07:24 UTC)

예보

예보는 1 시간 44분 전, 05:40시(UTC)에 발표되었습니다.
예보 대상 시간: 21일 06시부터 22일 06시까지 (UTC)
8kt
시정: 10km
고도 6000ft 상공 흐림
21일 1100시부터 (UTC)
12kt
시정: 10km
고도 6000ft 상공 흐림
약한비
21일 1500시부터 (UTC)
동남동17kt, 순간 최대 풍속 27kt
시정: 10km
고도 3000ft 상공 구름 많음
고도 6000ft 상공 흐림
약한비

TAF: PAJN 210540Z 2106/2206 10008KT P6SM OVC060 FM211100 10012KT P6SM -RA OVC060 WS020/13030KT FM211500 11017G27KT P6SM -RA BKN030 OVC060 WS020/14040KT

4,000개 이상의 공항 관측 자료 및 예보 (METAR 및 TAF 보고).

지도상에서 검색 가능한 기상관측소가 노란 점과 빨간 점으로 표시되어 있습니다.

기상관측소 명을 보려면 표시 위로 마우스를 이동하세요.

날씨 관측과 예보를 보려면 클릭하세요.

지도 변경 : 확대하려면 엑스 표시가 있는 녹색 버튼, 축소하려면 빼기 표시가 있는 녹색 버튼, 다음 페이지의 지도를 보려면 녹색 화살표를 클릭하세요.


METAR-TAF: